Tropical Cyclones
[Index]
Main Index Home Page Stock Weather Photos Extreme Storms Discussion Storm News and Storm Chasing Reports Tropical Cyclones / Hurricanes / Typhoons Weather Data and Links Wild Fires / Bushfires Weather Observation Techniques Weather Picture Catalogue Tornado Pictures and Reports Stock Video Footage and DVDs for sale
Season 2003-2004 Tropical Cyclone ELITA Track Map
Season 2003-2004 Summaries: [BoM-AU] [JTWC-AU] [JTWC-SIO] [JTWC-SPAC] [JTWC-SH]
<<- Previous TC | JTWC 2003-2004 Season | Next TC ->>

click for intensity scale information  Lat/long Grid: Show Hide

 Date Labels: Show Hide

Joint Typhoon Warning Centre Cyclone Data

Name: ELITA

25 Jan 2004 06:00 UTC to 05 Feb 2004 00:00 UTC

    date/time    lat    long     hPa   cat  kts
2004-01-25 06   16.6    43.1    1006         15          
2004-01-25 12   17.0    42.9    1006         15          
2004-01-25 18   17.4    42.5    1004         20          
2004-01-26 00   17.8    42.1    1004         20          
2004-01-26 06   18.1    42.7    1002         25          
2004-01-26 12   18.4    43.1    1000         30          
2004-01-26 18   18.6    43.5     997         35          
2004-01-27 00   18.2    43.6     997         35          
2004-01-27 06   17.6    43.5     997         35          
2004-01-27 12   16.9    43.5     997         35          
2004-01-27 18   16.1    43.5     991    1    45          
2004-01-28 00   15.5    44.1     984    2    55          
2004-01-28 00   15.5    44.1     984    2    55          
2004-01-28 06   15.2    44.9     984    2    55          
2004-01-28 06   15.2    44.9     984    2    55          
2004-01-28 12   15.5    45.7     980    2    60          
2004-01-28 12   15.5    45.7     980    2    60          
2004-01-28 18   16.3    46.3     987    1    50          
2004-01-28 18   16.3    46.3     987    1    50          
2004-01-29 00   17.1    47.1     994    1    40          
2004-01-29 06   17.9    47.9     997         35          
2004-01-29 12   19.0    48.0    1000         30          
2004-01-29 18   19.4    49.0    1002         25          
2004-01-30 00   20.2    49.6    1002         25          
2004-01-30 06   21.0    49.7    1002         25          
2004-01-30 12   21.6    49.3    1002         25          
2004-01-30 18   21.7    48.7    1002         25          
2004-01-31 00   21.6    48.1    1002         25          
2004-01-31 06   21.3    47.1    1002         25          
2004-01-31 12   20.9    45.8    1000         30          
2004-01-31 18   20.3    44.6     997         35          
2004-02-01 00   19.8    43.8     994    1    40          
2004-02-01 06   19.2    43.2     991    1    45          
2004-02-01 12   18.9    42.8     991    1    45          
2004-02-01 18   19.0    42.6     984    2    55          
2004-02-01 18   19.0    42.6     984    2    55          
2004-02-02 00   19.2    42.5     984    2    55          
2004-02-02 00   19.2    42.5     984    2    55          
2004-02-02 06   19.3    42.8     984    2    55          
2004-02-02 06   19.3    42.8     984    2    55          
2004-02-02 12   19.3    43.1     980    2    60          
2004-02-02 12   19.3    43.1     980    2    60          
2004-02-02 18   19.7    43.4     976    2    65          
2004-02-02 18   19.7    43.4     976    2    65          
2004-02-03 00   20.1    44.0     976    2    65          
2004-02-03 00   20.1    44.0     976    2    65          
2004-02-03 06   20.7    45.0     984    2    55          
2004-02-03 06   20.7    45.0     984    2    55          
2004-02-03 12   21.3    46.2     991    1    45          
2004-02-03 18   21.7    47.6     991    1    45          
2004-02-04 00   22.9    48.7     991    1    45          
2004-02-04 06   24.5    50.3     997         35          
2004-02-04 12   25.7    49.7     997         35          
2004-02-04 18   25.8    48.9    1000         30          
2004-02-05 00   25.3    49.4    1000         30          
Winds are 1-min average.

Tropical cyclone tracks developed by Michael Bath using data from the Joint Typhoon Warning Centre Best Tracks and Google Maps.


[Australian Severe Weather index] [Copyright Notice] [Email Contacts] [Search This Site] [Privacy Policy]
Document: tropical_cyclone_elita.htm Updated: 28 June 2017